Terminal Aerodrome Forecast
Issued by NWS Dallas/Fort Worth, TX

Home | Current Version | Previous Version | Text Only | Print | Product List | Glossary On
Versions: 1 2 3 4 5 6 7 8 9 10 11 12 13 14 15 16 17 18 19 20 21 22 23 24 25 26 27
485
FTUS44 KFWD 191740
TAFACT
TAF
KACT 191740Z 1918/2018 15012KT P6SM VCSH BKN022
     FM200000 14011KT P6SM BKN035
     FM200300 15010KT P6SM BKN015
     FM200600 17009KT 4SM TSRA BR BKN010 OVC015CB
     FM201000 21006KT 4SM SHRA BR OVC015
     FM201500 20005KT P6SM OVC025=

USA.gov is the U.S. government's official web portal to all federal, state and local government web resources and services.